Time;durP1;ratioP1;P1;durP2;ratioP2;P2;SDS_P1;SDS_P2;PMS_P1;PMS_P2;Temp;Humidity;BMP_temperature;BMP_pressure;BME280_temperature;BME280_humidity;BME280_pressure;Samples;Min_cycle;Max_cycle;Signal;HPM_P1;HPM_P2
2023/04/10 00:01:23;;;;;;;1.85;1.70;;;;;;;6.77;83.45;100349.31;5055364;28;20045;-70
2023/04/10 00:03:52;;;;;;;2.23;1.60;;;;;;;6.77;83.55;100349.31;5055372;28;20045;-69
2023/04/10 00:06:21;;;;;;;3.10;2.80;;;;;;;6.78;83.47;100348.47;5055610;28;20136;-69
2023/04/10 00:08:50;;;;;;;1.70;1.60;;;;;;;6.75;83.51;100350.13;5055160;28;20124;-70
2023/04/10 00:11:19;;;;;;;2.75;2.55;;;;;;;6.71;83.31;100348.34;5055186;28;20045;-70
2023/04/10 00:13:48;;;;;;;2.30;1.83;;;;;;;6.66;83.51;100347.38;5055414;28;20461;-70
2023/04/10 00:16:18;;;;;;;1.87;1.77;;;;;;;6.63;83.55;100341.34;5054952;28;20037;-68
2023/04/10 00:18:47;;;;;;;2.47;2.30;;;;;;;6.55;82.96;100333.53;5054975;28;20328;-70
2023/04/10 00:21:16;;;;;;;2.77;2.57;;;;;;;6.57;83.94;100342.06;5054891;28;20457;-69
2023/04/10 00:23:45;;;;;;;4.63;2.73;;;;;;;6.56;83.74;100339.47;5055455;28;20286;-69
2023/04/10 00:26:13;;;;;;;3.78;3.35;;;;;;;6.50;83.28;100332.53;5054714;28;20045;-68
2023/04/10 00:28:44;;;;;;;3.20;2.97;;;;;;;6.46;83.52;100333.28;5054809;28;20045;-68
2023/04/10 00:31:12;;;;;;;2.00;1.90;;;;;;;6.42;82.84;100328.97;5055079;28;20079;-68
2023/04/10 00:33:43;;;;;;;2.55;2.35;;;;;;;6.37;82.89;100330.53;5054883;28;20479;-69
2023/04/10 00:36:12;;;;;;;2.33;1.80;;;;;;;6.32;83.31;100327.00;5054479;28;20057;-70
2023/04/10 00:38:41;;;;;;;2.53;1.58;;;;;;;6.27;82.71;100335.31;5053709;28;20072;-70
2023/04/10 00:41:10;;;;;;;3.60;3.28;;;;;;;6.28;82.84;100337.03;5053384;28;20041;-69
2023/04/10 00:43:39;;;;;;;1.58;1.48;;;;;;;6.26;82.73;100334.47;5054476;28;20094;-69
2023/04/10 00:46:08;;;;;;;1.08;1.02;;;;;;;6.24;82.85;100333.53;5055259;28;20045;-69
2023/04/10 00:48:37;;;;;;;1.35;1.15;;;;;;;6.21;82.79;100332.63;5054369;28;20450;-70
2023/04/10 00:51:09;;;;;;;2.25;1.33;;;;;;;6.12;82.50;100325.59;5053158;28;20037;-69
2023/04/10 00:53:38;;;;;;;2.22;1.92;;;;;;;6.06;82.55;100320.38;5053505;28;20041;-69
2023/04/10 00:56:07;;;;;;;0.70;0.70;;;;;;;5.99;82.46;100339.63;5053123;28;20041;-68
2023/04/10 00:58:36;;;;;;;;;;;;;;;5.92;82.12;100336.88;5054534;28;20304;-70
2023/04/10 01:01:07;;;;;;;1.40;1.30;;;;;;;5.89;82.27;100331.72;5054121;28;19920;-70
2023/04/10 01:03:37;;;;;;;4.95;1.27;;;;;;;5.90;82.29;100333.44;5054136;28;20048;-69
2023/04/10 01:06:22;;;;;;;3.10;2.55;;;;;;;5.89;82.22;100334.25;5054077;28;20052;-68
2023/04/10 01:09:00;;;;;;;1.83;1.73;;;;;;;5.88;82.05;100340.13;5053879;28;20048;-69
2023/04/10 01:11:46;;;;;;;1.25;1.15;;;;;;;5.82;81.81;100334.88;5054329;28;20400;-68
2023/04/10 01:14:26;;;;;;;1.20;1.10;;;;;;;5.75;81.50;100343.09;5053320;28;20045;-69
2023/04/10 01:17:01;;;;;;;1.80;1.70;;;;;;;5.73;81.81;100344.75;5052984;28;20049;-70
2023/04/10 01:19:59;;;;;;;6.30;3.22;;;;;;;5.71;81.67;100342.13;5053876;28;20079;-68
2023/04/10 01:22:36;;;;;;;2.78;2.53;;;;;;;5.67;81.54;100339.47;5054043;28;20405;-69
2023/04/10 01:25:27;;;;;;;3.42;2.72;;;;;;;5.65;81.96;100341.09;5053804;28;20041;-69
2023/04/10 01:28:11;;;;;;;1.30;1.20;;;;;;;5.64;81.44;100344.47;5053658;28;20045;-69
2023/04/10 01:30:45;;;;;;;2.45;2.25;;;;;;;5.60;81.05;100340.13;5053938;28;20060;-69
2023/04/10 01:33:18;;;;;;;2.03;1.83;;;;;;;5.58;81.35;100351.88;5053892;28;20398;-69
2023/04/10 01:35:55;;;;;;;3.22;2.13;;;;;;;5.56;81.19;100336.66;5053970;28;20045;-70
2023/04/10 01:38:27;;;;;;;3.08;2.55;;;;;;;5.54;81.21;100342.47;5052457;28;20057;-70
2023/04/10 01:40:59;;;;;;;2.97;2.03;;;;;;;5.54;80.90;100330.69;5053538;28;20056;-70
2023/04/10 01:43:33;;;;;;;0.88;0.88;;;;;;;5.43;80.80;100329.50;5052265;28;20045;-70
2023/04/10 01:46:04;;;;;;;2.90;2.60;;;;;;;5.41;81.01;100332.00;5053811;28;20073;-69
2023/04/10 01:48:34;;;;;;;0.98;0.98;;;;;;;5.35;80.52;100336.84;5053711;28;20143;-69
2023/04/10 01:51:07;;;;;;;0.70;0.70;;;;;;;5.29;80.89;100334.16;5053419;28;20045;-69
2023/04/10 01:53:36;;;;;;;1.15;1.05;;;;;;;5.30;80.92;100338.38;5052201;28;20289;-69
2023/04/10 01:56:08;;;;;;;1.10;1.00;;;;;;;5.32;81.08;100340.97;5053342;28;20562;-69
2023/04/10 01:58:44;;;;;;;1.65;1.55;;;;;;;5.31;80.98;100336.72;5052146;28;20112;-70
2023/04/10 02:01:20;;;;;;;1.08;0.98;;;;;;;5.31;80.93;100335.03;5051587;28;20045;-70
2023/04/10 02:03:58;;;;;;;3.38;1.70;;;;;;;5.23;81.02;100333.94;5053335;28;20123;-69
2023/04/10 02:06:37;;;;;;;1.55;1.45;;;;;;;5.17;80.73;100336.28;5052335;28;20398;-69
2023/04/10 02:09:16;;;;;;;1.20;1.10;;;;;;;5.14;80.95;100330.25;5052432;28;20162;-69
2023/04/10 02:11:55;;;;;;;1.13;1.10;;;;;;;5.04;80.83;100329.13;5053518;28;20557;-69
2023/04/10 02:14:28;;;;;;;1.73;1.63;;;;;;;4.99;80.82;100319.69;5053370;28;20053;-69
2023/04/10 02:17:01;;;;;;;0.90;0.90;;;;;;;5.00;80.79;100336.56;5052260;28;20041;-69
2023/04/10 02:19:32;;;;;;;0.55;0.55;;;;;;;4.92;80.73;100332.94;5053153;28;20098;-69
2023/04/10 02:22:01;;;;;;;2.03;1.20;;;;;;;4.80;80.86;100328.34;5053462;28;20094;-69
2023/04/10 02:24:32;;;;;;;0.98;0.88;;;;;;;4.73;81.07;100336.53;5052062;28;20163;-70
2023/04/10 02:27:01;;;;;;;1.60;1.25;;;;;;;4.62;80.83;100332.78;5053430;28;20052;-69
2023/04/10 02:29:30;;;;;;;2.00;1.48;;;;;;;4.57;81.26;100334.31;5052023;28;20052;-69
2023/04/10 02:32:04;;;;;;;1.73;1.60;;;;;;;4.59;81.00;100332.69;5053302;28;20410;-69
2023/04/10 02:34:33;;;;;;;4.00;1.77;;;;;;;4.59;81.23;100332.69;5051811;28;20041;-70
2023/04/10 02:37:02;;;;;;;1.52;1.42;;;;;;;4.52;80.81;100328.25;5051740;28;20080;-69
2023/04/10 02:39:31;;;;;;;0.63;0.63;;;;;;;4.47;80.99;100332.28;5051747;28;20037;-70
2023/04/10 02:42:00;;;;;;;1.65;1.55;;;;;;;4.45;81.09;100323.78;5052266;28;20459;-69
2023/04/10 02:44:28;;;;;;;1.20;1.10;;;;;;;4.45;81.32;100328.84;5051957;28;20041;-70
2023/04/10 02:46:57;;;;;;;1.10;1.00;;;;;;;4.35;81.09;100321.75;5052849;28;20048;-69
2023/04/10 02:49:28;;;;;;;1.35;1.10;;;;;;;4.30;81.01;100325.78;5051961;28;20152;-69
2023/04/10 02:51:59;;;;;;;1.55;1.45;;;;;;;4.26;80.97;100334.06;5052846;28;20056;-70
2023/04/10 02:54:28;;;;;;;1.70;1.60;;;;;;;4.22;81.17;100337.31;5052755;28;20045;-71
2023/04/10 02:56:57;;;;;;;2.23;2.03;;;;;;;4.03;81.45;100300.44;5051791;28;20840;-70
2023/04/10 02:59:26;;;;;;;6.35;1.55;;;;;;;4.15;81.64;100337.91;5052731;28;20581;-68
2023/04/10 03:01:55;;;;;;;1.53;1.43;;;;;;;4.05;81.23;100337.56;5052992;28;20052;-69
2023/04/10 03:04:24;;;;;;;2.25;2.08;;;;;;;4.05;81.72;100337.56;5051833;28;20381;-69
2023/04/10 03:06:55;;;;;;;0.68;0.68;;;;;;;4.07;81.69;100343.53;5053093;28;20497;-69
2023/04/10 03:09:25;;;;;;;1.67;1.58;;;;;;;4.00;81.91;100339.09;5053023;28;20071;-71
2023/04/10 03:11:55;;;;;;;7.55;2.78;;;;;;;3.96;81.87;100332.19;5053525;28;20053;-70
2023/04/10 03:14:24;;;;;;;2.80;2.60;;;;;;;4.02;81.80;100332.41;5056270;28;20068;-70
2023/04/10 03:16:52;;;;;;;1.10;1.05;;;;;;;3.96;81.25;100332.19;5056585;28;20119;-69
2023/04/10 03:19:21;;;;;;;3.57;3.10;;;;;;;3.92;81.28;100329.50;5055585;28;20041;-69
2023/04/10 03:21:50;;;;;;;4.35;2.72;;;;;;;3.89;81.89;100325.19;5055293;28;20513;-70
2023/04/10 03:24:21;;;;;;;0.80;0.77;;;;;;;3.87;81.96;100326.81;5055282;28;20111;-69
2023/04/10 03:26:50;;;;;;;0.60;0.60;;;;;;;3.82;81.96;100320.72;5056630;28;20372;-68
2023/04/10 03:29:20;;;;;;;0.60;0.60;;;;;;;3.81;81.40;100326.59;5054825;28;20507;-70
2023/04/10 03:31:49;;;;;;;0.57;0.57;;;;;;;3.79;81.87;100333.22;5055971;28;20041;-70
2023/04/10 03:34:18;;;;;;;;;;;;;;;3.77;81.64;100329.78;5056353;28;20083;-69
2023/04/10 03:36:48;;;;;;;0.50;0.50;;;;;;;3.76;81.58;100338.19;5055710;28;20370;-69
2023/04/10 03:39:18;;;;;;;0.52;0.52;;;;;;;3.74;81.90;100334.72;5054696;28;20045;-69
2023/04/10 03:41:48;;;;;;;6.20;2.30;;;;;;;3.75;81.71;100326.34;5054978;28;20067;-69
2023/04/10 03:44:19;;;;;;;2.28;2.10;;;;;;;3.78;81.87;100325.63;5054599;28;20115;-70
2023/04/10 03:46:48;;;;;;;3.05;2.80;;;;;;;3.81;81.58;100331.66;5054788;28;20494;-69
2023/04/10 03:49:17;;;;;;;1.25;1.15;;;;;;;3.82;81.63;100327.44;5055848;28;20414;-70
2023/04/10 03:51:46;;;;;;;1.05;1.05;;;;;;;3.82;82.09;100327.44;5054958;28;20073;-69
2023/04/10 03:54:16;;;;;;;6.25;2.58;;;;;;;3.80;82.27;100334.09;5054380;28;20098;-69
2023/04/10 03:56:44;;;;;;;1.83;1.73;;;;;;;3.74;81.86;100333.88;5055447;28;20045;-70
2023/04/10 03:59:15;;;;;;;2.00;1.90;;;;;;;3.71;81.55;100333.78;5055518;28;20120;-70
2023/04/10 04:01:44;;;;;;;4.93;1.17;;;;;;;3.61;81.27;100327.53;5054328;28;20106;-70
2023/04/10 04:04:12;;;;;;;0.60;0.60;;;;;;;3.65;81.88;100334.41;5054692;28;20036;-69
2023/04/10 04:06:52;;;;;;;1.17;1.10;;;;;;;3.66;81.46;100345.34;5055311;28;20049;-69
2023/04/10 04:09:20;;;;;;;1.13;1.13;;;;;;;3.61;81.88;100347.72;5055216;28;20037;-69
2023/04/10 04:12:09;;;;;;;4.32;4.00;;;;;;;3.64;81.38;100347.84;5055414;28;20491;-69
2023/04/10 04:14:50;;;;;;;0.30;0.30;;;;;;;3.68;81.65;100351.31;5055523;28;20595;-69
2023/04/10 04:17:19;;;;;;;2.13;1.98;;;;;;;3.66;81.78;100351.28;5055163;28;20051;-70
2023/04/10 04:19:59;;;;;;;1.17;1.08;;;;;;;3.66;81.60;100356.31;5055375;28;20556;-70
2023/04/10 04:22:48;;;;;;;4.45;3.25;;;;;;;3.63;82.14;100346.09;5054171;28;20052;-69
2023/04/10 04:25:39;;;;;;;1.02;1.02;;;;;;;3.62;81.50;100351.97;5055306;28;20122;-69
2023/04/10 04:28:23;;;;;;;2.22;2.03;;;;;;;3.63;81.88;100363.75;5054972;28;20072;-69
2023/04/10 04:31:05;;;;;;;2.00;1.75;;;;;;;3.68;82.25;100359.75;5054958;28;20056;-69
2023/04/10 04:33:54;;;;;;;1.85;1.75;;;;;;;3.69;82.15;100358.09;5036648;28;20503;-69
2023/04/10 04:36:36;;;;;;;0.93;0.93;;;;;;;3.72;81.92;100359.06;5053448;28;20053;-69
2023/04/10 04:39:16;;;;;;;1.60;1.50;;;;;;;3.79;82.11;100355.94;5054641;28;20053;-69
2023/04/10 04:42:11;;;;;;;2.00;1.90;;;;;;;3.85;81.70;100356.19;5046152;28;20128;-69
2023/04/10 04:44:40;;;;;;;2.10;1.95;;;;;;;3.95;81.67;100370.88;5054894;28;20391;-69
2023/04/10 04:47:24;;;;;;;1.30;1.17;;;;;;;4.02;81.79;100362.72;5056216;28;20452;-69
2023/04/10 04:50:05;;;;;;;3.35;3.08;;;;;;;4.07;81.58;100366.28;5054782;28;20048;-69
2023/04/10 04:52:45;;;;;;;0.75;0.75;;;;;;;4.17;82.05;100366.59;5054532;28;20566;-69
2023/04/10 04:55:25;;;;;;;2.75;1.75;;;;;;;4.25;81.51;100365.22;5055015;28;20380;-69
2023/04/10 04:58:02;;;;;;;2.05;1.67;;;;;;;4.27;81.30;100368.66;5054311;28;20123;-70
2023/04/10 05:00:42;;;;;;;3.03;2.47;;;;;;;4.39;81.58;100364.03;5054588;28;20049;-68
2023/04/10 05:03:24;;;;;;;2.53;1.23;;;;;;;4.47;81.31;100362.59;5054609;28;20127;-69
2023/04/10 05:06:03;;;;;;;0.98;0.90;;;;;;;4.60;81.21;100359.69;5054628;28;20491;-69
2023/04/10 05:08:52;;;;;;;4.53;2.15;;;;;;;4.74;81.12;100358.47;5054508;28;20403;-69
2023/04/10 05:11:32;;;;;;;1.20;1.10;;;;;;;4.83;81.05;100357.91;5054238;28;20044;-69
2023/04/10 05:14:12;;;;;;;0.70;0.70;;;;;;;4.89;80.98;100361.53;5054131;28;20048;-69
2023/04/10 05:16:52;;;;;;;2.20;1.95;;;;;;;4.94;80.29;100362.53;5054450;28;20544;-71
2023/04/10 05:19:40;;;;;;;2.15;2.05;;;;;;;5.04;80.61;100367.06;5054036;28;20079;-70
2023/04/10 05:22:26;;;;;;;2.70;1.85;;;;;;;5.14;80.49;100361.50;5054034;28;20049;-71
2023/04/10 05:25:07;;;;;;;3.83;2.15;;;;;;;5.23;80.01;100371.91;5054195;28;20135;-71
2023/04/10 05:27:50;;;;;;;1.00;1.00;;;;;;;5.37;79.93;100375.72;5053897;28;20052;-69
2023/04/10 05:30:42;;;;;;;1.15;1.13;;;;;;;5.50;79.68;100381.16;5051213;28;20053;-69
2023/04/10 05:33:28;;;;;;;1.17;1.08;;;;;;;5.62;79.21;100381.53;5054213;28;20079;-70
2023/04/10 05:36:13;;;;;;;1.50;1.30;;;;;;;5.65;79.05;100382.50;5052917;28;20068;-67
2023/04/10 05:38:53;;;;;;;2.42;1.45;;;;;;;5.79;78.53;100387.97;5053659;28;20063;-68
2023/04/10 05:41:33;;;;;;;1.50;1.40;;;;;;;5.87;77.91;100378.94;5053915;28;20052;-69
2023/04/10 05:44:14;;;;;;;1.40;1.30;;;;;;;5.83;77.91;100383.03;5053640;28;20380;-68
2023/04/10 05:47:06;;;;;;;1.40;1.30;;;;;;;5.75;77.17;100381.97;5050663;28;20430;-69
2023/04/10 05:49:54;;;;;;;1.75;1.65;;;;;;;5.86;76.79;100383.16;5053629;28;20056;-69
2023/04/10 05:52:36;;;;;;;3.58;2.13;;;;;;;6.05;77.25;100379.47;5054092;28;20041;-68
2023/04/10 05:55:25;;;;;;;0.88;0.85;;;;;;;6.22;76.75;100383.34;5053528;28;20053;-69
2023/04/10 05:58:20;;;;;;;0.85;0.85;;;;;;;6.31;75.98;100375.16;5044926;28;20044;-68
2023/04/10 06:01:13;;;;;;;2.17;1.60;;;;;;;6.42;75.90;100384.75;5033974;28;20124;-68
2023/04/10 06:03:51;;;;;;;1.45;1.35;;;;;;;6.53;75.74;100385.88;5052217;28;20132;-68
2023/04/10 06:06:23;;;;;;;1.75;1.65;;;;;;;6.71;75.10;100385.53;5053389;28;20045;-68
2023/04/10 06:08:53;;;;;;;2.13;1.98;;;;;;;6.72;74.53;100383.00;5053930;28;20132;-68
2023/04/10 06:11:23;;;;;;;5.45;2.22;;;;;;;6.83;74.84;100379.91;5053235;28;20072;-67
2023/04/10 06:13:55;;;;;;;2.33;2.13;;;;;;;6.90;74.21;100381.75;5052402;28;20099;-68
2023/04/10 06:16:30;;;;;;;2.15;1.50;;;;;;;7.03;74.42;100379.56;5053842;28;20052;-68
2023/04/10 06:18:59;;;;;;;3.47;3.00;;;;;;;7.14;73.71;100382.38;5052209;28;20503;-67
2023/04/10 06:21:28;;;;;;;5.00;1.97;;;;;;;7.31;73.70;100381.09;5052094;28;20045;-67
2023/04/10 06:23:58;;;;;;;2.70;1.90;;;;;;;7.50;73.59;100380.69;5052049;28;20041;-68
2023/04/10 06:26:27;;;;;;;1.67;1.58;;;;;;;7.61;72.84;100381.78;5053165;28;20072;-68
2023/04/10 06:28:56;;;;;;;3.50;2.93;;;;;;;7.71;72.95;100378.63;5051995;28;20522;-68
2023/04/10 06:31:26;;;;;;;1.27;1.17;;;;;;;7.91;72.27;100382.47;5053292;28;20110;-67
2023/04/10 06:33:55;;;;;;;3.15;2.47;;;;;;;7.98;72.62;100379.22;5053178;28;20128;-69
2023/04/10 06:36:24;;;;;;;2.33;1.70;;;;;;;8.10;72.25;100376.94;5052701;28;20045;-69
2023/04/10 06:39:03;;;;;;;17.42;2.33;;;;;;;8.33;71.54;100379.09;5053018;28;20060;-68
2023/04/10 06:41:32;;;;;;;2.13;1.55;;;;;;;8.43;70.93;100374.22;5053051;28;20495;-68
2023/04/10 06:44:16;;;;;;;13.70;3.55;;;;;;;8.52;70.53;100373.50;5053270;28;20049;-68
2023/04/10 06:46:45;;;;;;;1.87;1.50;;;;;;;8.65;70.13;100378.00;5055424;28;20114;-68
2023/04/10 06:49:14;;;;;;;5.47;3.88;;;;;;;8.81;69.80;100381.66;5056786;28;20399;-68
2023/04/10 06:51:44;;;;;;;2.60;2.40;;;;;;;8.93;69.52;100372.56;5056901;28;20037;-68
2023/04/10 06:54:15;;;;;;;2.03;1.92;;;;;;;9.15;69.60;100374.63;5056734;28;20132;-68
2023/04/10 06:56:44;;;;;;;3.15;2.78;;;;;;;9.29;69.08;100370.63;5056655;28;20052;-68
2023/04/10 06:59:13;;;;;;;6.67;2.07;;;;;;;9.37;68.29;100370.72;5056610;28;20068;-69
2023/04/10 07:01:41;;;;;;;3.88;2.80;;;;;;;9.61;68.46;100368.53;5056465;28;20110;-69
2023/04/10 07:04:10;;;;;;;2.80;2.55;;;;;;;9.71;68.71;100364.44;5056625;28;20091;-68
2023/04/10 07:06:39;;;;;;;6.50;3.42;;;;;;;9.74;68.13;100362.75;5056649;28;20564;-68
2023/04/10 07:09:08;;;;;;;2.63;2.42;;;;;;;9.85;68.06;100361.22;5056733;28;20080;-68
2023/04/10 07:11:38;;;;;;;5.37;3.00;;;;;;;9.96;67.44;100358.81;5056373;28;20065;-69
2023/04/10 07:14:07;;;;;;;3.33;3.03;;;;;;;10.11;67.62;100359.00;5056713;28;20048;-68
2023/04/10 07:16:36;;;;;;;2.60;2.13;;;;;;;10.18;66.92;100355.72;5056277;28;20087;-69
2023/04/10 07:19:05;;;;;;;4.67;2.37;;;;;;;10.23;67.16;100363.41;5056550;28;20399;-69
2023/04/10 07:21:34;;;;;;;3.58;2.85;;;;;;;10.42;66.50;100365.34;5055262;28;20569;-69
2023/04/10 07:24:03;;;;;;;5.37;4.03;;;;;;;10.51;66.15;100363.72;5056149;28;20041;-69
2023/04/10 07:26:31;;;;;;;5.05;2.85;;;;;;;10.56;65.51;100367.19;5056130;28;20282;-69
2023/04/10 07:29:02;;;;;;;4.40;3.97;;;;;;;10.64;65.13;100363.03;5056291;28;20450;-69
2023/04/10 07:31:30;;;;;;;2.33;2.13;;;;;;;10.68;64.86;100364.75;5056088;28;20398;-69
2023/04/10 07:33:59;;;;;;;5.17;3.10;;;;;;;10.82;65.07;100362.34;5056290;28;20493;-68
2023/04/10 07:36:28;;;;;;;2.50;1.83;;;;;;;10.90;64.74;100359.84;5055840;28;20056;-69
2023/04/10 07:38:57;;;;;;;2.03;1.90;;;;;;;11.05;64.66;100365.97;5055920;28;20063;-69
2023/04/10 07:41:26;;;;;;;3.37;2.97;;;;;;;11.17;63.99;100355.84;5055729;28;20049;-70
2023/04/10 07:43:55;;;;;;;5.70;3.37;;;;;;;11.28;64.03;100359.31;5055816;28;20045;-69
2023/04/10 07:46:26;;;;;;;7.17;3.30;;;;;;;11.48;63.66;100356.91;5055718;28;20277;-69
2023/04/10 07:48:55;;;;;;;0.90;0.85;;;;;;;11.53;62.85;100352.69;5055627;28;20048;-69
2023/04/10 07:51:24;;;;;;;3.13;2.75;;;;;;;11.44;62.69;100353.47;5055577;28;20056;-71
2023/04/10 07:53:53;;;;;;;2.20;2.00;;;;;;;11.67;62.30;100356.16;5055466;28;20037;-67
2023/04/10 07:56:22;;;;;;;2.42;2.15;;;;;;;11.76;62.30;100356.25;5055893;28;20068;-69
2023/04/10 07:58:51;;;;;;;2.58;2.20;;;;;;;11.94;62.04;100348.69;5054615;28;20041;-69
2023/04/10 08:01:21;;;;;;;3.88;3.47;;;;;;;12.16;62.02;100341.09;5055470;28;20048;-69
2023/04/10 08:03:51;;;;;;;4.00;2.97;;;;;;;12.29;61.47;100340.25;5055666;28;20048;-68
2023/04/10 08:06:20;;;;;;;8.82;3.05;;;;;;;12.38;61.35;100330.06;5055297;28;20283;-70
2023/04/10 08:08:50;;;;;;;2.73;2.47;;;;;;;12.56;60.73;100340.31;5056180;28;20507;-68
2023/04/10 08:11:26;;;;;;;2.40;1.58;;;;;;;12.61;60.13;100338.63;5055268;28;20069;-68
2023/04/10 08:13:56;;;;;;;6.63;2.15;;;;;;;12.66;59.60;100332.69;5055665;28;20051;-68
2023/04/10 08:16:26;;;;;;;3.25;1.75;;;;;;;12.83;59.53;100335.25;5055663;28;20565;-68
2023/04/10 08:18:58;;;;;;;3.38;2.72;;;;;;;12.86;59.33;100329.28;5055022;28;20056;-68
2023/04/10 08:21:28;;;;;;;2.55;2.10;;;;;;;12.99;59.18;100331.81;5055137;28;20045;-69
2023/04/10 08:23:59;;;;;;;3.03;2.72;;;;;;;13.21;59.53;100328.44;5055273;28;20503;-69
2023/04/10 08:26:28;;;;;;;2.78;2.45;;;;;;;13.27;58.93;100325.84;5055339;28;20057;-68
2023/04/10 08:28:59;;;;;;;3.90;2.83;;;;;;;13.33;58.25;100323.31;5054857;28;20052;-68
2023/04/10 08:31:29;;;;;;;2.63;2.42;;;;;;;13.32;57.86;100320.72;5055241;28;20445;-69
2023/04/10 08:34:00;;;;;;;4.10;3.08;;;;;;;13.37;58.28;100325.00;5054994;28;20051;-68
2023/04/10 08:36:30;;;;;;;3.05;1.77;;;;;;;13.42;58.15;100313.03;5054667;28;20095;-68
2023/04/10 08:38:59;;;;;;;8.70;2.08;;;;;;;13.46;57.84;100318.16;5054783;28;20144;-70
2023/04/10 08:41:28;;;;;;;4.35;3.90;;;;;;;13.54;57.96;100308.72;5054874;28;20439;-69
2023/04/10 08:43:57;;;;;;;4.77;2.60;;;;;;;13.73;58.36;100302.66;5054665;28;20049;-70
2023/04/10 08:46:27;;;;;;;7.40;2.75;;;;;;;13.85;57.97;100302.63;5054523;28;20491;-69
2023/04/10 08:49:02;;;;;;;2.70;2.50;;;;;;;13.89;57.88;100301.75;5054491;28;20048;-70
2023/04/10 08:51:37;;;;;;;2.47;1.88;;;;;;;13.77;57.85;100294.13;5054532;28;20048;-71
2023/04/10 08:54:08;;;;;;;1.52;1.42;;;;;;;13.99;58.24;100303.41;5054252;28;20071;-69
2023/04/10 08:56:40;;;;;;;2.45;1.73;;;;;;;14.12;57.15;100302.50;5054731;28;20586;-69
2023/04/10 08:59:09;;;;;;;2.05;1.60;;;;;;;14.16;56.69;100293.91;5054589;28;20037;-71
2023/04/10 09:01:40;;;;;;;2.30;1.90;;;;;;;14.36;56.57;100297.25;5054321;28;20067;-70
2023/04/10 09:04:12;;;;;;;4.97;3.53;;;;;;;14.39;55.71;100292.13;5054295;28;20041;-70
2023/04/10 09:06:41;;;;;;;4.25;2.60;;;;;;;14.65;55.16;100292.78;5054183;28;20045;-69
2023/04/10 09:09:10;;;;;;;2.63;2.27;;;;;;;14.64;54.69;100287.63;5054436;28;20442;-69
2023/04/10 09:11:59;;;;;;;1.97;1.77;;;;;;;14.63;54.34;100294.53;5052845;28;20037;-70
2023/04/10 09:14:30;;;;;;;3.92;2.63;;;;;;;14.71;53.79;100290.16;5054139;28;20270;-70
2023/04/10 09:17:11;;;;;;;2.88;2.55;;;;;;;15.10;53.73;100293.25;5054342;28;20098;-70
2023/04/10 09:19:43;;;;;;;2.70;2.35;;;;;;;15.25;52.70;100287.97;5054771;28;20049;-70
2023/04/10 09:22:13;;;;;;;1.92;1.63;;;;;;;15.35;52.64;100292.16;5054286;28;20475;-70
2023/04/10 09:24:44;;;;;;;6.20;2.85;;;;;;;15.39;52.25;100286.09;5053698;28;20041;-70
2023/04/10 09:27:31;;;;;;;1.77;1.40;;;;;;;15.34;51.45;100275.88;5053997;28;20136;-69
2023/04/10 09:30:01;;;;;;;3.08;1.58;;;;;;;15.40;51.49;100277.53;5053741;28;20049;-70
2023/04/10 09:32:41;;;;;;;7.63;1.75;;;;;;;15.24;50.96;100278.53;5053734;28;20041;-69
2023/04/10 09:35:13;;;;;;;3.33;0.90;;;;;;;15.43;52.01;100262.91;5053785;28;20049;-70
2023/04/10 09:37:44;;;;;;;3.63;1.80;;;;;;;15.75;51.73;100262.56;5053606;28;20063;-70
2023/04/10 09:40:23;;;;;;;2.55;1.42;;;;;;;15.92;51.01;100265.78;5054075;28;20106;-69
2023/04/10 09:42:54;;;;;;;3.05;2.00;;;;;;;15.94;49.56;100261.47;5053554;28;20072;-68
2023/04/10 09:45:23;;;;;;;2.55;1.55;;;;;;;15.87;48.99;100264.97;5054139;28;20434;-68
2023/04/10 09:48:03;;;;;;;2.53;1.00;;;;;;;16.00;49.32;100261.34;5053585;28;20094;-69
2023/04/10 09:50:39;;;;;;;2.67;2.25;;;;;;;16.04;48.23;100251.88;5053810;28;20368;-70
2023/04/10 09:53:09;;;;;;;1.13;0.93;;;;;;;16.27;48.15;100249.00;5053670;28;20041;-69
2023/04/10 09:55:38;;;;;;;3.35;2.38;;;;;;;16.65;49.79;100246.72;5053694;28;20037;-69
2023/04/10 09:58:08;;;;;;;2.28;1.83;;;;;;;16.69;48.65;100248.34;5053733;28;20045;-69
2023/04/10 10:00:41;;;;;;;1.20;1.08;;;;;;;16.48;47.22;100238.34;5053598;28;20388;-69
2023/04/10 10:03:13;;;;;;;0.82;0.82;;;;;;;16.47;46.86;100231.50;5053339;28;20052;-69
2023/04/10 10:05:46;;;;;;;1.55;1.25;;;;;;;16.52;47.49;100233.16;5053324;28;20049;-69
2023/04/10 10:08:16;;;;;;;5.10;1.63;;;;;;;16.67;47.70;100229.50;5053647;28;20044;-69
2023/04/10 10:10:47;;;;;;;1.60;1.00;;;;;;;16.61;48.16;100207.22;5053358;28;20045;-69
2023/04/10 10:13:20;;;;;;;2.47;1.98;;;;;;;16.63;47.97;100218.38;5053414;28;20041;-68
2023/04/10 10:15:58;;;;;;;1.63;1.45;;;;;;;16.58;48.46;100212.44;5053354;28;20048;-68
2023/04/10 10:18:39;;;;;;;1.02;0.85;;;;;;;16.66;48.75;100207.16;5053565;28;20098;-68
2023/04/10 10:21:10;;;;;;;2.90;1.48;;;;;;;16.60;47.67;100207.28;5054765;28;20048;-68
2023/04/10 10:23:40;;;;;;;5.88;2.88;;;;;;;16.62;47.45;100205.50;5057328;28;20079;-68
2023/04/10 10:26:10;;;;;;;2.35;1.63;;;;;;;16.80;47.38;100204.31;5057804;28;20045;-68
2023/04/10 10:28:41;;;;;;;1.35;1.27;;;;;;;16.88;47.71;100205.06;5057279;28;20068;-68
2023/04/10 10:31:11;;;;;;;5.07;2.55;;;;;;;16.88;47.56;100198.19;5057448;28;20041;-69
2023/04/10 10:33:40;;;;;;;;;;;;;;;16.82;47.28;100198.28;5057961;28;20423;-68
2023/04/10 10:36:12;;;;;;;2.15;1.25;;;;;;;16.74;48.77;100197.56;5056775;28;19966;-67
2023/04/10 10:38:50;;;;;;;1.63;1.52;;;;;;;16.77;49.77;100200.09;5057007;28;20047;-68
2023/04/10 10:41:29;;;;;;;1.60;1.50;;;;;;;16.85;49.21;100189.63;5057089;28;20083;-67
2023/04/10 10:44:08;;;;;;;2.75;1.55;;;;;;;16.75;48.28;100201.84;5056838;28;20499;-68
2023/04/10 10:46:43;;;;;;;0.93;0.88;;;;;;;16.53;47.78;100201.34;5056966;28;20049;-68
2023/04/10 10:49:12;;;;;;;1.65;1.52;;;;;;;16.41;48.08;100206.66;5057138;28;20045;-67
2023/04/10 10:51:47;;;;;;;0.67;0.67;;;;;;;16.49;48.32;100194.53;5056851;28;20118;-67
2023/04/10 10:54:27;;;;;;;2.22;2.00;;;;;;;16.34;47.88;100188.78;5056520;28;20044;-67
2023/04/10 10:56:56;;;;;;;4.55;1.95;;;;;;;16.24;48.33;100192.38;5057221;28;20453;-68
2023/04/10 10:59:47;;;;;;;15.23;1.70;;;;;;;16.25;48.41;100188.91;5057061;28;20092;-68
2023/04/10 11:02:17;;;;;;;1.20;1.10;;;;;;;16.31;48.27;100169.06;5056852;28;20128;-67
2023/04/10 11:04:48;;;;;;;1.83;1.38;;;;;;;16.38;48.29;100170.66;5055665;28;20091;-68
2023/04/10 11:07:19;;;;;;;1.88;1.20;;;;;;;16.86;49.06;100161.25;5056336;28;20091;-67
2023/04/10 11:09:50;;;;;;;3.00;1.55;;;;;;;17.44;49.13;100166.97;5056667;28;20347;-67
2023/04/10 11:12:22;;;;;;;1.92;1.75;;;;;;;17.51;48.70;100169.41;5056522;28;20434;-67
2023/04/10 11:14:59;;;;;;;1.92;1.42;;;;;;;17.15;48.92;100164.13;5056133;28;20041;-68
2023/04/10 11:17:50;;;;;;;1.42;1.10;;;;;;;16.81;48.49;100155.34;5056653;28;20064;-68
2023/04/10 11:20:24;;;;;;;3.67;1.65;;;;;;;16.94;48.60;100155.97;5055906;28;20107;-67
2023/04/10 11:23:10;;;;;;;1.27;1.05;;;;;;;17.08;47.53;100149.66;5056229;28;20462;-67
2023/04/10 11:25:51;;;;;;;0.85;0.85;;;;;;;17.06;46.83;100146.25;5056494;28;20539;-67
2023/04/10 11:28:37;;;;;;;2.67;1.77;;;;;;;16.88;46.58;100146.59;5056404;28;20045;-67
2023/04/10 11:31:18;;;;;;;1.33;1.23;;;;;;;16.93;47.17;100133.63;5056695;28;20119;-67
2023/04/10 11:33:48;;;;;;;1.75;1.45;;;;;;;17.03;47.50;100133.44;5054661;28;20041;-68
2023/04/10 11:36:17;;;;;;;1.48;1.08;;;;;;;17.22;47.21;100132.19;5056016;28;20053;-67
2023/04/10 11:38:59;;;;;;;2.67;1.73;;;;;;;17.50;46.31;100136.75;5056205;28;20064;-67
2023/04/10 11:41:30;;;;;;;0.82;0.82;;;;;;;17.46;45.57;100130.81;5055752;28;20060;-67
2023/04/10 11:44:00;;;;;;;1.55;1.40;;;;;;;17.29;45.70;100122.56;5055886;28;20513;-68
2023/04/10 11:46:30;;;;;;;1.10;0.95;;;;;;;17.49;46.10;100119.56;5055692;28;20049;-68
2023/04/10 11:49:01;;;;;;;1.67;1.17;;;;;;;17.48;46.34;100115.28;5056268;28;20049;-68
2023/04/10 11:51:31;;;;;;;2.60;1.33;;;;;;;17.37;47.07;100121.50;5055536;28;20080;-67
2023/04/10 11:54:08;;;;;;;0.60;0.60;;;;;;;17.18;47.59;100119.38;5055536;28;20480;-67
2023/04/10 11:56:39;;;;;;;3.75;1.23;;;;;;;17.09;47.35;100109.22;5055963;28;20049;-67
2023/04/10 11:59:09;;;;;;;4.60;1.00;;;;;;;16.90;47.35;100097.56;5055831;28;20041;-67
2023/04/10 12:01:39;;;;;;;1.00;0.95;;;;;;;16.84;47.52;100114.03;5055548;28;20045;-68